Time;durP1;ratioP1;P1;durP2;ratioP2;P2;SDS_P1;SDS_P2;PMS_P1;PMS_P2;Temp;Humidity;BMP_temperature;BMP_pressure;BME280_temperature;BME280_humidity;BME280_pressure;Samples;Min_cycle;Max_cycle;Signal;HPM_P1;HPM_P2
2022/05/11 00:01:53;;;;;;;6.90;2.97;;;14.00;99.90;;;;;;6096150;23;20365;-94
2022/05/11 00:04:22;;;;;;;9.15;3.35;;;13.90;99.90;;;;;;6095888;23;20018;-93
2022/05/11 00:06:49;;;;;;;7.07;3.03;;;13.90;99.90;;;;;;6072050;23;20094;-92
2022/05/11 00:09:16;;;;;;;7.13;3.08;;;13.90;99.90;;;;;;6095985;23;20078;-94
2022/05/11 00:11:45;;;;;;;6.45;3.00;;;13.90;99.90;;;;;;6097883;23;20035;-90
2022/05/11 00:14:14;;;;;;;6.05;3.15;;;14.00;99.90;;;;;;6165616;23;20020;-91
2022/05/11 00:16:40;;;;;;;7.93;2.92;;;14.00;99.90;;;;;;6165648;23;20013;-95
2022/05/11 00:19:06;;;;;;;6.40;3.10;;;14.00;99.90;;;;;;6165403;23;20437;-91
2022/05/11 00:21:31;;;;;;;6.97;3.17;;;14.00;99.90;;;;;;6165440;23;20058;-92
2022/05/11 00:23:58;;;;;;;6.68;2.95;;;14.00;99.90;;;;;;6165794;23;20103;-92
2022/05/11 00:26:23;;;;;;;7.07;3.60;;;14.10;99.90;;;;;;6165767;23;20020;-91
2022/05/11 00:28:49;;;;;;;7.70;3.23;;;14.10;99.90;;;;;;6165443;23;20017;-92
2022/05/11 00:31:15;;;;;;;6.70;3.70;;;14.10;99.90;;;;;;6165814;23;20584;-90
2022/05/11 00:33:41;;;;;;;6.10;3.17;;;14.10;99.90;;;;;;6165469;23;20013;-91
2022/05/11 00:36:12;;;;;;;6.07;3.20;;;14.10;99.90;;;;;;6165505;23;20023;-93
2022/05/11 00:38:40;;;;;;;7.05;3.63;;;14.10;99.90;;;;;;6165386;23;20323;-94
2022/05/11 00:41:07;;;;;;;6.93;2.85;;;14.10;99.90;;;;;;6165274;23;20023;-93
2022/05/11 00:43:52;;;;;;;7.10;3.33;;;14.10;99.90;;;;;;6165169;23;20389;-93
2022/05/11 00:46:37;;;;;;;6.25;2.88;;;14.10;99.90;;;;;;6165090;23;20049;-91
2022/05/11 00:52:09;;;;;;;8.80;3.08;;;14.20;99.90;;;;;;6189834;23;20048;-92
2022/05/11 00:59:48;;;;;;;7.63;2.78;;;14.20;99.90;;;;;;6245534;22;20024;-91
2022/05/11 01:02:14;;;;;;;7.03;3.20;;;14.20;99.90;;;;;;6194548;23;20047;-90
2022/05/11 01:05:04;;;;;;;;;;;;;;;;;;;;;
2022/05/11 01:07:34;;;;;;;6.85;2.83;;;14.20;99.90;;;;;;6219902;23;20028;-90
2022/05/11 01:10:00;;;;;;;6.70;2.85;;;14.30;99.90;;;;;;6194644;23;20103;-91
2022/05/11 01:13:06;;;;;;;6.63;2.73;;;14.20;99.90;;;;;;6194847;23;20044;-92
2022/05/11 01:16:42;;;;;;;6.68;3.00;;;14.20;99.90;;;;;;6194680;23;20068;-92
2022/05/11 01:19:08;;;;;;;5.63;2.80;;;14.20;99.90;;;;;;6068423;23;20069;-91
2022/05/11 01:21:49;;;;;;;6.13;2.58;;;14.20;99.90;;;;;;6071115;23;20030;-90
2022/05/11 01:24:43;;;;;;;6.10;2.30;;;14.30;99.90;;;;;;6071117;23;20078;-91
2022/05/11 01:27:43;;;;;;;7.97;2.88;;;14.30;99.90;;;;;;6051274;23;20015;-90
2022/05/11 01:30:30;;;;;;;6.97;2.33;;;14.30;99.90;;;;;;6194482;23;20016;-92
2022/05/11 01:32:56;;;;;;;7.55;2.50;;;14.30;99.90;;;;;;6192774;23;20070;-90
2022/05/11 01:35:33;;;;;;;6.25;2.70;;;14.30;99.90;;;;;;6194735;23;20017;-91
2022/05/11 01:38:30;;;;;;;6.97;2.55;;;14.30;99.90;;;;;;6194540;23;20457;-91
2022/05/11 01:40:56;;;;;;;6.10;2.78;;;14.30;99.90;;;;;;6194343;23;20023;-91
2022/05/11 01:43:25;;;;;;;6.60;2.60;;;14.30;99.90;;;;;;6194617;23;20043;-90
2022/05/11 01:45:54;;;;;;;6.45;2.50;;;14.30;99.90;;;;;;6194779;23;20020;-91
2022/05/11 01:48:21;;;;;;;6.10;2.92;;;14.30;99.90;;;;;;6194475;23;20016;-91
2022/05/11 01:50:47;;;;;;;7.35;3.30;;;14.30;99.90;;;;;;6194333;23;20012;-90
2022/05/11 01:53:13;;;;;;;7.03;2.70;;;14.30;99.90;;;;;;6194268;23;20016;-90
2022/05/11 01:56:08;;;;;;;;;;;;;;;;;;;;;
2022/05/11 01:58:43;;;;;;;5.47;2.42;;;14.30;99.90;;;;;;6219108;23;20016;-91
2022/05/11 02:01:12;;;;;;;5.38;2.53;;;14.20;99.90;;;;;;6192637;23;20016;-90
2022/05/11 02:03:38;;;;;;;6.38;2.55;;;14.20;99.90;;;;;;6194249;23;20012;-92
2022/05/11 02:08:56;;;;;;;6.70;2.70;;;14.20;99.90;;;;;;6219704;23;20278;-91
2022/05/11 02:11:22;;;;;;;8.23;2.80;;;14.20;99.90;;;;;;6196460;23;20016;-91
2022/05/11 02:13:59;;;;;;;6.85;3.17;;;14.20;99.90;;;;;;6196341;23;20023;-91
2022/05/11 02:16:26;;;;;;;5.90;3.03;;;14.20;99.90;;;;;;6196312;23;20016;-90
2022/05/11 02:18:52;;;;;;;5.70;2.80;;;14.20;99.90;;;;;;6196297;23;20062;-90
2022/05/11 02:21:18;;;;;;;7.40;2.85;;;14.20;99.90;;;;;;6196042;23;20017;-90
2022/05/11 02:23:44;;;;;;;6.40;3.13;;;14.20;99.90;;;;;;6221327;23;20090;-91
2022/05/11 02:26:11;;;;;;;6.15;2.80;;;14.20;99.90;;;;;;6196209;23;20027;-90
2022/05/11 02:28:37;;;;;;;5.88;2.92;;;14.10;99.90;;;;;;6195923;23;20023;-89
2022/05/11 02:31:04;;;;;;;7.00;2.83;;;14.10;99.90;;;;;;6195867;23;20016;-90
2022/05/11 02:33:30;;;;;;;7.45;3.13;;;14.10;99.90;;;;;;6196154;23;20016;-89
2022/05/11 02:35:55;;;;;;;6.90;2.72;;;14.10;99.90;;;;;;6196225;23;20023;-92
2022/05/11 02:38:30;;;;;;;6.10;2.47;;;14.10;99.90;;;;;;6221465;23;20388;-91
2022/05/11 02:40:56;;;;;;;6.18;2.53;;;14.00;99.90;;;;;;6220892;23;20023;-91
2022/05/11 02:43:22;;;;;;;5.25;2.70;;;14.10;99.90;;;;;;6196137;23;20016;-91
2022/05/11 02:45:50;;;;;;;7.68;2.75;;;14.00;99.90;;;;;;6196203;23;20016;-91
2022/05/11 02:48:19;;;;;;;6.78;2.72;;;14.00;99.90;;;;;;6196283;23;20055;-91
2022/05/11 02:50:51;;;;;;;8.18;2.70;;;14.00;99.90;;;;;;6196038;23;20027;-90
2022/05/11 02:53:18;;;;;;;6.82;2.40;;;14.00;99.90;;;;;;6195998;23;20340;-90
2022/05/11 02:55:49;;;;;;;6.50;2.55;;;14.00;99.90;;;;;;6196158;23;20020;-91
2022/05/11 02:58:18;;;;;;;6.30;2.53;;;14.00;99.90;;;;;;6196013;23;20475;-89
2022/05/11 03:00:47;;;;;;;7.85;2.50;;;14.00;99.90;;;;;;6195961;23;20330;-92
2022/05/11 03:03:15;;;;;;;7.03;2.70;;;14.00;99.90;;;;;;6220952;23;20056;-92
2022/05/11 03:05:42;;;;;;;6.65;2.88;;;14.00;99.90;;;;;;6196113;23;20019;-91
2022/05/11 03:08:08;;;;;;;7.75;3.25;;;14.00;99.90;;;;;;6196446;23;20023;-91
2022/05/11 03:10:48;;;;;;;5.75;2.78;;;14.00;99.90;;;;;;6196159;23;20403;-92
2022/05/11 03:13:50;;;;;;;;;;;;;;;;;;;;;
2022/05/11 03:16:19;;;;;;;6.45;3.00;;;14.00;99.90;;;;;;6189192;23;20472;-91
2022/05/11 03:18:44;;;;;;;7.65;2.72;;;14.00;99.90;;;;;;6161123;23;20045;-91
2022/05/11 03:21:16;;;;;;;8.10;2.60;;;14.00;99.90;;;;;;6161565;23;20021;-90
2022/05/11 03:24:02;;;;;;;5.97;2.35;;;14.00;99.90;;;;;;6186455;23;20021;-91
2022/05/11 03:26:28;;;;;;;6.38;2.90;;;14.00;99.90;;;;;;6161343;23;20021;-91
2022/05/11 03:28:54;;;;;;;5.60;2.47;;;14.00;99.90;;;;;;6162183;23;20346;-92
2022/05/11 03:31:22;;;;;;;5.00;2.08;;;14.00;99.90;;;;;;6161061;23;20013;-95
2022/05/11 03:36:40;;;;;;;5.82;2.55;;;14.00;99.90;;;;;;6185159;23;20096;-92
2022/05/11 03:41:42;;;;;;;5.93;1.98;;;14.00;99.90;;;;;;6246485;22;20024;-92
2022/05/11 03:44:08;;;;;;;5.38;2.20;;;14.00;99.90;;;;;;6195034;23;20023;-91
2022/05/11 03:46:34;;;;;;;6.03;2.40;;;14.00;99.90;;;;;;6195321;23;20446;-93
2022/05/11 03:49:00;;;;;;;6.40;2.45;;;14.00;99.90;;;;;;6195331;23;20012;-91
2022/05/11 03:51:32;;;;;;;5.97;2.20;;;14.00;99.90;;;;;;6195340;23;20023;-91
2022/05/11 03:54:12;;;;;;;4.35;1.83;;;14.00;99.90;;;;;;6215288;23;20251;-91
2022/05/11 03:56:38;;;;;;;5.65;2.33;;;13.90;99.90;;;;;;6195088;23;20533;-92
2022/05/11 04:03:06;;;;;;;;;;;;;;;;;;;;;
2022/05/11 04:09:21;;;;;;;5.63;2.10;;;13.90;99.90;;;;;;6214336;23;20030;-91
2022/05/11 04:11:47;;;;;;;5.80;2.00;;;13.90;99.90;;;;;;6194771;23;20389;-92
2022/05/11 04:14:14;;;;;;;4.93;2.15;;;14.00;99.90;;;;;;6195585;23;20020;-92
2022/05/11 04:16:43;;;;;;;5.22;1.65;;;14.00;99.90;;;;;;6195053;23;20015;-90
2022/05/11 04:19:12;;;;;;;5.75;2.00;;;14.00;99.90;;;;;;6194817;23;20024;-93
2022/05/11 04:21:56;;;;;;;5.00;2.25;;;14.00;99.90;;;;;;6195253;23;20070;-94
2022/05/11 04:24:30;;;;;;;4.57;1.77;;;14.00;99.90;;;;;;6196875;23;20012;-92
2022/05/11 04:26:56;;;;;;;7.57;2.10;;;14.00;99.90;;;;;;6195014;23;20511;-92
2022/05/11 04:29:40;;;;;;;5.65;2.10;;;14.00;99.90;;;;;;6195013;23;20406;-92
2022/05/11 04:32:17;;;;;;;;;;;;;;;;;;;;;
2022/05/11 04:37:34;;;;;;;5.53;2.13;;;14.10;99.90;;;;;;6214962;22;20024;-93
2022/05/11 04:40:11;;;;;;;4.70;2.30;;;14.10;99.90;;;;;;6165069;23;20025;-95
2022/05/11 04:42:42;;;;;;;6.15;2.00;;;14.10;99.90;;;;;;6165471;23;20044;-94
2022/05/11 04:45:27;;;;;;;5.40;2.50;;;14.10;99.90;;;;;;6162371;23;20107;-93
2022/05/11 04:47:53;;;;;;;5.85;2.33;;;14.10;99.90;;;;;;6160108;23;20076;-93
2022/05/11 04:50:19;;;;;;;5.40;1.77;;;14.10;99.90;;;;;;6159981;23;20095;-92
2022/05/11 04:52:45;;;;;;;5.18;1.90;;;14.10;99.90;;;;;;6159955;23;20024;-91
2022/05/11 04:55:23;;;;;;;3.45;1.50;;;14.10;99.90;;;;;;6159843;23;20024;-91
2022/05/11 04:57:49;;;;;;;5.85;2.10;;;14.10;99.90;;;;;;6160058;23;20500;-90
2022/05/11 05:00:15;;;;;;;4.97;1.60;;;14.10;99.90;;;;;;6159998;23;20052;-89
2022/05/11 05:02:57;;;;;;;5.88;2.08;;;14.10;99.90;;;;;;6184240;23;20399;-92
2022/05/11 05:05:31;;;;;;;4.88;2.25;;;14.10;99.90;;;;;;6162590;23;20037;-91
2022/05/11 05:07:57;;;;;;;6.00;2.10;;;14.10;99.90;;;;;;6160045;23;20013;-90
2022/05/11 05:44:09;;;;;;;4.18;1.83;;;14.30;99.90;;;;;;6216323;22;20099;-90
2022/05/11 05:46:35;;;;;;;4.82;1.70;;;14.30;99.90;;;;;;6167061;23;20033;-92
2022/05/11 05:50:08;;;;;;;4.95;1.80;;;14.40;99.90;;;;;;6167693;23;20013;-91
2022/05/11 06:39:23;;;;;;;5.93;1.63;;;14.90;99.90;;;;;;6254132;22;20020;-91
2022/05/11 06:41:49;;;;;;;5.97;2.05;;;15.00;99.90;;;;;;6225805;22;20020;-91
2022/05/11 06:44:23;;;;;;;6.80;1.90;;;15.00;99.90;;;;;;6225952;22;20022;-92
2022/05/11 06:47:05;;;;;;;8.25;2.47;;;15.10;99.90;;;;;;6254495;22;20023;-90
2022/05/11 06:49:33;;;;;;;4.70;2.05;;;15.20;99.90;;;;;;6225770;22;20020;-92
2022/05/11 06:52:06;;;;;;;6.97;2.25;;;15.20;99.90;;;;;;6226000;22;20016;-91
2022/05/11 06:59:53;;;;;;;7.97;2.10;;;15.10;99.90;;;;;;6243349;23;20345;-90
2022/05/11 07:02:19;;;;;;;6.50;2.05;;;15.20;99.90;;;;;;6165841;23;20024;-90
2022/05/11 07:04:56;;;;;;;4.93;2.10;;;15.10;99.90;;;;;;6165944;23;20020;-96
2022/05/11 08:15:24;;;;;;;3.65;1.40;;;16.60;99.90;;;;;;6222865;22;20353;-93
2022/05/11 09:12:14;;;;;;;4.78;1.90;;;17.10;99.90;;;;;;6161134;23;20080;-88
2022/05/11 09:14:53;;;;;;;3.20;1.15;;;17.20;99.90;;;;;;6129551;23;20052;-89
2022/05/11 09:17:34;;;;;;;4.28;1.33;;;17.20;99.90;;;;;;6104901;23;20168;-89
2022/05/11 09:20:11;;;;;;;4.88;1.42;;;17.20;99.90;;;;;;6130297;23;20443;-88
2022/05/11 09:22:59;;;;;;;5.72;1.52;;;17.20;99.90;;;;;;6131400;23;20015;-87
2022/05/11 09:25:35;;;;;;;3.95;1.70;;;17.20;99.90;;;;;;6131613;23;20013;-88
2022/05/11 09:28:18;;;;;;;5.47;1.55;;;17.20;99.90;;;;;;6156114;23;20021;-93
2022/05/11 09:31:12;;;;;;;2.72;1.05;;;17.30;99.90;;;;;;6131985;23;20083;-93
2022/05/11 09:33:57;;;;;;;2.83;1.00;;;17.40;99.90;;;;;;6132375;23;20021;-93
2022/05/11 09:36:35;;;;;;;4.15;1.30;;;17.50;99.90;;;;;;6131963;23;20014;-94
2022/05/11 09:39:16;;;;;;;3.78;0.93;;;17.60;99.90;;;;;;6131628;23;20018;-92
2022/05/11 09:41:49;;;;;;;5.07;1.10;;;17.80;99.90;;;;;;6134246;23;20119;-88
2022/05/11 09:44:26;;;;;;;3.80;1.15;;;18.00;99.90;;;;;;6158017;23;20014;-87
2022/05/11 09:46:52;;;;;;;3.67;1.38;;;18.10;99.90;;;;;;6131774;23;20014;-87
2022/05/11 09:49:18;;;;;;;5.30;1.33;;;18.10;99.90;;;;;;6131711;23;20133;-89
2022/05/11 09:51:46;;;;;;;6.43;1.10;;;18.20;99.90;;;;;;6131881;23;20025;-88
2022/05/11 09:54:18;;;;;;;3.25;0.90;;;18.20;99.90;;;;;;6131629;23;20021;-88
2022/05/11 09:57:16;;;;;;;7.05;1.25;;;18.20;99.90;;;;;;6131787;23;20096;-91
2022/05/11 09:59:49;;;;;;;2.67;1.00;;;18.20;99.90;;;;;;6128902;23;20020;-87
2022/05/11 10:02:31;;;;;;;2.85;1.55;;;18.10;99.90;;;;;;6131721;23;20463;-88
2022/05/11 10:05:10;;;;;;;6.70;1.17;;;18.00;99.90;;;;;;6131135;23;20028;-86
2022/05/11 10:07:37;;;;;;;4.35;1.10;;;18.00;99.90;;;;;;6106974;23;20459;-86
2022/05/11 10:10:14;;;;;;;4.15;1.10;;;17.90;99.90;;;;;;6131023;23;20025;-84
2022/05/11 10:12:42;;;;;;;5.28;1.30;;;18.00;99.90;;;;;;6157014;23;20465;-87
2022/05/11 10:24:16;;;;;;;3.03;0.90;;;18.00;99.90;;;;;;6130846;23;20055;-90
2022/05/11 10:27:09;;;;;;;3.25;1.00;;;18.20;99.90;;;;;;6107037;23;20048;-87
2022/05/11 10:30:13;;;;;;;5.13;0.95;;;18.20;99.90;;;;;;6107077;23;20026;-90
2022/05/11 10:33:12;;;;;;;3.90;1.40;;;18.30;99.90;;;;;;6131290;23;20022;-89
2022/05/11 10:36:08;;;;;;;4.57;1.00;;;18.40;99.90;;;;;;6131510;23;20021;-91
2022/05/11 10:38:49;;;;;;;3.35;1.05;;;18.50;99.90;;;;;;6130946;23;20053;-87
2022/05/11 10:41:29;;;;;;;4.90;1.13;;;18.50;99.90;;;;;;6130763;23;20021;-88
2022/05/11 10:44:00;;;;;;;2.72;1.27;;;18.40;99.90;;;;;;6129846;23;20025;-89
2022/05/11 10:46:37;;;;;;;6.70;1.35;;;18.30;99.90;;;;;;6131187;23;20036;-88
2022/05/11 10:49:34;;;;;;;3.58;1.05;;;18.20;99.90;;;;;;6131149;23;20021;-88
2022/05/11 10:52:19;;;;;;;3.42;0.90;;;18.30;99.90;;;;;;6129771;23;20100;-90
2022/05/11 10:55:01;;;;;;;2.72;0.98;;;18.50;99.90;;;;;;6129517;23;20053;-88
2022/05/11 10:57:39;;;;;;;4.93;1.10;;;18.50;99.90;;;;;;6130810;23;20029;-89
2022/05/11 11:00:15;;;;;;;4.00;0.90;;;18.60;99.90;;;;;;6156175;23;20021;-92
2022/05/11 11:02:40;;;;;;;4.18;1.00;;;18.80;99.90;;;;;;6131482;23;20021;-89
2022/05/11 11:05:25;;;;;;;3.75;0.82;;;19.00;99.90;;;;;;6131756;23;20018;-91
2022/05/11 11:08:16;;;;;;;3.17;1.08;;;19.20;99.80;;;;;;6131194;23;20021;-91
2022/05/11 11:11:00;;;;;;;2.47;0.90;;;19.20;99.30;;;;;;6130970;23;20021;-90
2022/05/11 11:13:40;;;;;;;3.55;0.75;;;19.40;99.10;;;;;;6131367;23;20056;-89
2022/05/11 11:16:12;;;;;;;4.75;0.82;;;19.70;99.30;;;;;;6154306;23;20029;-89
2022/05/11 11:18:41;;;;;;;6.00;1.33;;;19.90;98.90;;;;;;6156912;23;20020;-91
2022/05/11 11:21:10;;;;;;;1.75;0.60;;;20.10;98.30;;;;;;6131051;23;20092;-87
2022/05/11 11:23:43;;;;;;;2.15;0.80;;;20.30;97.70;;;;;;6130335;23;20021;-93
2022/05/11 11:26:28;;;;;;;4.55;1.05;;;20.50;96.30;;;;;;6129100;23;20017;-90
2022/05/11 11:28:56;;;;;;;3.25;0.88;;;20.70;96.20;;;;;;6130951;23;20025;-91
2022/05/11 11:31:26;;;;;;;2.25;0.63;;;20.80;95.70;;;;;;6155572;23;20404;-92
2022/05/11 11:34:04;;;;;;;3.50;0.80;;;20.90;95.30;;;;;;6130036;23;20013;-88
2022/05/11 11:36:38;;;;;;;4.38;1.10;;;20.90;94.70;;;;;;6130847;23;20100;-91
2022/05/11 11:39:09;;;;;;;2.15;0.90;;;20.90;93.80;;;;;;6156981;23;20087;-88
2022/05/11 11:41:41;;;;;;;4.95;1.17;;;20.90;94.40;;;;;;6131037;23;20014;-93
2022/05/11 11:44:38;;;;;;;3.90;1.00;;;20.90;94.30;;;;;;6130981;23;20021;-89
2022/05/11 11:47:26;;;;;;;4.60;1.10;;;20.70;93.50;;;;;;6157067;23;20021;-89
2022/05/11 11:49:57;;;;;;;5.07;1.10;;;20.50;93.00;;;;;;6130715;23;20021;-86
2022/05/11 11:52:44;;;;;;;4.53;1.00;;;20.30;94.60;;;;;;6131329;23;20017;-87
2022/05/11 11:55:27;;;;;;;5.10;1.20;;;20.20;92.90;;;;;;6131860;23;20452;-85
2022/05/11 11:58:23;;;;;;;2.30;0.90;;;20.10;94.20;;;;;;6108230;23;20399;-89
2022/05/11 12:00:49;;;;;;;4.95;1.02;;;19.90;94.10;;;;;;6102223;23;20055;-86
2022/05/11 12:03:23;;;;;;;3.90;0.98;;;20.00;94.80;;;;;;6132403;23;20021;-91
2022/05/11 12:05:55;;;;;;;3.35;0.90;;;20.10;94.60;;;;;;6131912;23;20036;-92
2022/05/11 12:16:56;;;;;;;3.10;0.90;;;20.10;92.60;;;;;;6156707;23;20435;-90
2022/05/11 12:19:26;;;;;;;2.70;1.40;;;20.00;92.10;;;;;;6106050;23;20024;-89
2022/05/11 12:22:19;;;;;;;3.22;1.48;;;20.00;91.90;;;;;;6130473;23;20018;-93
2022/05/11 12:24:47;;;;;;;5.45;1.00;;;20.00;91.80;;;;;;6130465;23;20024;-88
2022/05/11 12:27:23;;;;;;;3.17;1.55;;;20.00;92.10;;;;;;6130774;23;20033;-89
2022/05/11 12:29:56;;;;;;;2.95;0.63;;;20.00;92.00;;;;;;6130487;23;20022;-91
2022/05/11 12:32:36;;;;;;;3.20;0.60;;;20.10;91.40;;;;;;6130713;23;20013;-88
2022/05/11 12:35:26;;;;;;;3.72;0.73;;;20.20;89.60;;;;;;6130487;23;20017;-90
2022/05/11 12:37:58;;;;;;;2.85;0.40;;;20.00;86.70;;;;;;6129866;23;20053;-88
2022/05/11 12:40:25;;;;;;;1.95;0.50;;;19.90;88.60;;;;;;6130093;23;20014;-91
2022/05/11 12:42:57;;;;;;;1.60;0.40;;;19.90;88.70;;;;;;6130266;23;20072;-89
2022/05/11 12:45:42;;;;;;;0.85;0.35;;;20.00;87.80;;;;;;6130206;23;20018;-89
2022/05/11 12:48:15;;;;;;;3.38;0.70;;;20.10;86.30;;;;;;6130418;23;20017;-93
2022/05/11 12:50:48;;;;;;;2.80;0.52;;;20.20;87.40;;;;;;6129823;23;20348;-90
2022/05/11 12:53:17;;;;;;;1.35;0.40;;;20.40;85.60;;;;;;6129764;23;20047;-89
2022/05/11 12:56:14;;;;;;;3.22;0.93;;;20.50;85.70;;;;;;6154312;23;20100;-91
2022/05/11 12:58:49;;;;;;;2.20;0.30;;;20.70;84.20;;;;;;6104335;23;20048;-91
2022/05/11 13:01:17;;;;;;;2.00;0.30;;;20.60;84.60;;;;;;6130180;23;20068;-88
2022/05/11 13:03:45;;;;;;;4.68;0.40;;;20.70;84.60;;;;;;6129866;23;20104;-87
2022/05/11 13:06:17;;;;;;;1.08;0.30;;;20.70;83.30;;;;;;6130110;23;20013;-87
2022/05/11 13:08:45;;;;;;;1.88;0.43;;;20.70;81.50;;;;;;6129897;23;20022;-88
2022/05/11 13:11:20;;;;;;;1.85;0.40;;;20.80;82.50;;;;;;6155968;23;20025;-89
2022/05/11 13:13:51;;;;;;;1.95;0.35;;;20.90;79.40;;;;;;6130048;23;20018;-90
2022/05/11 13:16:28;;;;;;;3.70;0.47;;;21.10;80.30;;;;;;6154724;23;20161;-90
2022/05/11 13:19:27;;;;;;;2.92;0.30;;;21.20;71.10;;;;;;6154580;23;20020;-90
2022/05/11 13:21:58;;;;;;;1.83;0.30;;;21.20;76.10;;;;;;6129926;23;20025;-91
2022/05/11 13:24:41;;;;;;;1.63;0.40;;;21.20;75.50;;;;;;6155439;23;20022;-89
2022/05/11 13:27:48;;;;;;;1.77;0.50;;;21.20;71.70;;;;;;6129980;23;20041;-89
2022/05/11 13:30:29;;;;;;;2.05;0.40;;;21.20;75.00;;;;;;6130474;23;20079;-89
2022/05/11 13:33:03;;;;;;;3.10;0.50;;;21.30;72.40;;;;;;6130170;23;20014;-90
2022/05/11 13:35:35;;;;;;;1.70;0.40;;;21.30;71.90;;;;;;6105753;23;20076;-88
2022/05/11 13:38:10;;;;;;;4.05;0.40;;;21.30;73.50;;;;;;6129824;23;20084;-92
2022/05/11 13:40:54;;;;;;;3.92;0.60;;;21.20;73.00;;;;;;6129850;23;20017;-88
2022/05/11 13:43:22;;;;;;;1.25;0.43;;;21.00;72.70;;;;;;6156096;23;20017;-90
2022/05/11 13:45:57;;;;;;;2.63;0.50;;;20.80;73.60;;;;;;6130017;23;20013;-93
2022/05/11 13:48:27;;;;;;;2.03;0.40;;;20.60;73.70;;;;;;6129705;23;20108;-89
2022/05/11 13:51:09;;;;;;;3.58;0.60;;;20.50;75.20;;;;;;6130140;23;20018;-93
2022/05/11 13:53:35;;;;;;;1.45;0.43;;;20.30;75.30;;;;;;6153735;23;20053;-90
2022/05/11 13:56:09;;;;;;;;;;;20.20;76.00;;;;;;6130625;23;20009;-91
2022/05/11 13:58:43;;;;;;;2.92;0.75;;;20.00;74.00;;;;;;6130108;23;20003;-92
2022/05/11 14:01:20;;;;;;;4.00;0.70;;;19.80;76.60;;;;;;6129935;23;20009;-86
2022/05/11 14:03:57;;;;;;;3.17;0.77;;;19.60;77.70;;;;;;6129858;23;20053;-90
2022/05/11 14:06:33;;;;;;;3.28;0.77;;;19.50;78.50;;;;;;6157268;23;20024;-90
2022/05/11 14:08:59;;;;;;;3.50;1.25;;;19.40;79.50;;;;;;6156671;23;20077;-93
2022/05/11 14:11:25;;;;;;;;;;;19.40;80.50;;;;;;6132341;23;20451;-89
2022/05/11 14:13:51;;;;;;;3.10;0.73;;;19.50;81.80;;;;;;6107490;23;19963;-90
2022/05/11 14:16:25;;;;;;;4.30;1.00;;;19.70;81.50;;;;;;6131197;23;20092;-89
2022/05/11 14:18:53;;;;;;;2.55;0.82;;;19.70;81.60;;;;;;6130260;23;20451;-91
2022/05/11 14:21:18;;;;;;;4.05;1.02;;;19.80;82.10;;;;;;6129457;23;20593;-86
2022/05/11 14:23:44;;;;;;;3.20;1.05;;;19.80;82.40;;;;;;6131549;23;20053;-91
2022/05/11 14:26:11;;;;;;;3.63;1.20;;;19.80;82.90;;;;;;6131525;23;20013;-89
2022/05/11 14:28:37;;;;;;;5.57;1.27;;;19.80;83.60;;;;;;6130875;23;20018;-86
2022/05/11 14:31:04;;;;;;;3.00;1.15;;;19.80;83.90;;;;;;6155648;23;20100;-88
2022/05/11 14:33:30;;;;;;;4.32;0.90;;;19.90;84.40;;;;;;6131157;23;20020;-87
2022/05/11 14:35:56;;;;;;;2.45;0.70;;;20.00;85.00;;;;;;6131084;23;20100;-86
2022/05/11 14:38:23;;;;;;;3.05;0.75;;;20.00;84.60;;;;;;6131235;23;20116;-86
2022/05/11 14:40:49;;;;;;;4.50;0.75;;;20.10;83.50;;;;;;6131422;23;20072;-88
2022/05/11 14:43:18;;;;;;;1.95;0.60;;;20.00;82.80;;;;;;6132262;23;20017;-88
2022/05/11 14:45:47;;;;;;;4.53;0.98;;;19.90;82.10;;;;;;6131453;23;20172;-87
2022/05/11 14:48:27;;;;;;;2.15;0.63;;;19.80;82.60;;;;;;6132199;23;20056;-91
2022/05/11 14:50:54;;;;;;;3.67;1.15;;;19.60;83.50;;;;;;6106804;23;20021;-88
2022/05/11 14:53:21;;;;;;;4.03;0.65;;;19.50;83.20;;;;;;6157043;23;20514;-86
2022/05/11 14:55:47;;;;;;;3.42;0.80;;;19.40;83.60;;;;;;6106711;23;20478;-84
2022/05/11 15:03:42;;;;;;;1.73;0.45;;;19.10;82.80;;;;;;6157258;23;20026;-91
2022/05/11 15:06:10;;;;;;;4.50;0.60;;;19.00;81.90;;;;;;6129415;23;20052;-90
2022/05/11 15:08:36;;;;;;;2.05;0.60;;;18.90;81.50;;;;;;6130903;23;20014;-87
2022/05/11 15:13:46;;;;;;;2.25;0.47;;;18.70;82.30;;;;;;6156656;23;20028;-87
2022/05/11 15:16:12;;;;;;;1.88;0.30;;;18.70;81.80;;;;;;6130546;23;20070;-88
2022/05/11 15:18:38;;;;;;;1.92;0.30;;;18.60;82.10;;;;;;6130206;23;20018;-88
2022/05/11 15:21:05;;;;;;;1.77;0.30;;;18.60;82.50;;;;;;6130421;23;20084;-86
2022/05/11 15:23:31;;;;;;;2.63;0.45;;;18.60;82.30;;;;;;6130959;23;20016;-88
2022/05/11 15:25:57;;;;;;;1.35;0.30;;;18.50;82.10;;;;;;6130550;23;20014;-88
2022/05/11 15:28:23;;;;;;;2.25;0.60;;;18.50;81.80;;;;;;6130334;23;20024;-88
2022/05/11 15:30:49;;;;;;;1.88;0.47;;;18.50;81.30;;;;;;6130708;23;20510;-87
2022/05/11 15:33:19;;;;;;;1.63;0.30;;;18.40;82.00;;;;;;6155157;23;20017;-90
2022/05/11 15:35:46;;;;;;;2.72;0.95;;;18.40;82.00;;;;;;6106177;23;20056;-89
2022/05/11 15:38:13;;;;;;;4.05;0.28;;;18.40;81.70;;;;;;6130463;23;20480;-89
2022/05/11 15:40:40;;;;;;;2.10;0.40;;;18.40;81.60;;;;;;6130494;23;20023;-89
2022/05/11 15:43:07;;;;;;;1.30;0.17;;;18.40;81.10;;;;;;6106170;23;20014;-89
2022/05/11 15:45:33;;;;;;;1.30;0.28;;;18.40;81.00;;;;;;6156429;23;20028;-90
2022/05/11 15:48:02;;;;;;;0.52;0.20;;;18.40;81.00;;;;;;6131365;23;20017;-91
2022/05/11 15:50:30;;;;;;;3.15;0.30;;;18.40;81.30;;;;;;6154528;23;20021;-85
2022/05/11 15:52:56;;;;;;;2.70;0.57;;;18.30;81.40;;;;;;6156289;23;20028;-88
2022/05/11 15:55:25;;;;;;;1.80;0.30;;;18.30;81.50;;;;;;6130266;23;20093;-87
2022/05/11 15:57:52;;;;;;;2.38;0.52;;;18.20;82.10;;;;;;6105938;23;20451;-88
2022/05/11 16:00:21;;;;;;;2.67;0.55;;;18.20;82.30;;;;;;6130449;23;20021;-87
2022/05/11 16:02:48;;;;;;;1.52;0.45;;;18.10;82.30;;;;;;6156612;23;20041;-85
2022/05/11 16:05:16;;;;;;;1.85;0.50;;;18.00;82.50;;;;;;6105824;23;20029;-86
2022/05/11 16:07:42;;;;;;;1.80;0.30;;;18.00;83.00;;;;;;6130105;23;20018;-89
2022/05/11 16:10:08;;;;;;;2.70;0.40;;;18.00;83.20;;;;;;6105511;23;20465;-88
2022/05/11 16:12:35;;;;;;;2.33;0.55;;;17.90;83.20;;;;;;6105431;23;20517;-87
2022/05/11 16:15:01;;;;;;;3.05;0.47;;;17.90;83.20;;;;;;6105405;23;20053;-88
2022/05/11 16:20:12;;;;;;;2.75;0.43;;;17.80;83.90;;;;;;6130261;23;20032;-86
2022/05/11 16:22:43;;;;;;;1.08;0.20;;;17.70;83.90;;;;;;6130065;23;20018;-87
2022/05/11 16:25:09;;;;;;;2.80;0.57;;;17.70;84.40;;;;;;6105218;23;20065;-86
2022/05/11 16:27:35;;;;;;;1.70;0.40;;;17.60;84.50;;;;;;6129953;23;20036;-86
2022/05/11 16:30:01;;;;;;;1.95;0.50;;;17.50;84.80;;;;;;6129767;23;20021;-88
2022/05/11 16:32:27;;;;;;;1.38;0.47;;;17.50;85.90;;;;;;6105403;23;20022;-87
2022/05/11 16:34:54;;;;;;;;;;;17.40;87.30;;;;;;6130450;23;20018;-87
2022/05/11 16:37:22;;;;;;;2.22;0.70;;;17.20;90.30;;;;;;6129923;23;19916;-87
2022/05/11 16:39:48;;;;;;;3.17;0.57;;;17.10;90.00;;;;;;6130086;23;20017;-85
2022/05/11 16:42:15;;;;;;;3.15;0.70;;;17.00;90.60;;;;;;6130169;23;20060;-86
2022/05/11 16:44:41;;;;;;;;;;;16.90;91.20;;;;;;6130843;23;20045;-86
2022/05/11 16:47:10;;;;;;;4.95;0.70;;;16.80;93.60;;;;;;6128291;23;19916;-87
2022/05/11 16:49:49;;;;;;;2.75;0.88;;;16.70;92.70;;;;;;6128778;23;20101;-86
2022/05/11 16:52:16;;;;;;;2.75;0.60;;;16.70;93.60;;;;;;6129651;23;20085;-85
2022/05/11 16:54:43;;;;;;;6.15;0.88;;;16.60;93.90;;;;;;6129263;23;20047;-88
2022/05/11 16:57:09;;;;;;;2.80;0.82;;;16.60;94.50;;;;;;6128761;23;20044;-87
2022/05/11 16:59:35;;;;;;;5.88;1.10;;;16.50;95.00;;;;;;6129404;23;20045;-85
2022/05/11 17:02:02;;;;;;;3.08;0.57;;;16.50;95.40;;;;;;6152623;23;20017;-85
2022/05/11 17:04:29;;;;;;;3.50;0.65;;;16.50;96.00;;;;;;6129121;23;20017;-86
2022/05/11 17:06:55;;;;;;;4.05;0.90;;;16.40;96.50;;;;;;6127589;23;20104;-86
2022/05/11 17:09:21;;;;;;;3.22;0.73;;;16.40;97.30;;;;;;6127268;23;20019;-86
2022/05/11 17:11:48;;;;;;;4.63;0.70;;;16.40;97.70;;;;;;6129205;23;20343;-86
2022/05/11 17:14:15;;;;;;;4.00;2.05;;;16.40;97.80;;;;;;6129841;23;20026;-86
2022/05/11 17:16:41;;;;;;;2.05;0.55;;;16.30;97.90;;;;;;6105257;23;20096;-86
2022/05/11 17:19:07;;;;;;;5.43;0.88;;;16.30;98.20;;;;;;6155725;23;20050;-85
2022/05/11 17:21:34;;;;;;;2.22;0.70;;;16.20;98.80;;;;;;6154058;23;20340;-85
2022/05/11 17:24:01;;;;;;;6.07;0.80;;;16.20;99.10;;;;;;6105204;23;20022;-86
2022/05/11 17:26:27;;;;;;;2.35;0.70;;;16.20;99.70;;;;;;6154216;23;20432;-86
2022/05/11 17:28:53;;;;;;;3.13;0.60;;;16.10;99.90;;;;;;6129432;23;20025;-86
2022/05/11 17:31:19;;;;;;;6.22;0.80;;;16.10;99.90;;;;;;6155498;23;20024;-87
2022/05/11 17:33:45;;;;;;;2.85;0.80;;;16.00;99.90;;;;;;6105072;23;20092;-85
2022/05/11 17:36:11;;;;;;;2.15;0.65;;;16.00;99.90;;;;;;6129260;23;20028;-85
2022/05/11 17:38:37;;;;;;;7.05;1.52;;;15.90;99.90;;;;;;6153988;23;20021;-86
2022/05/11 17:41:05;;;;;;;4.13;0.80;;;15.90;99.90;;;;;;6130694;23;20014;-88
2022/05/11 17:43:30;;;;;;;5.30;0.90;;;15.80;99.90;;;;;;6131607;23;20020;-87
2022/05/11 17:45:58;;;;;;;3.80;0.75;;;15.80;99.90;;;;;;6131442;23;20049;-86